sensor_id;sensor_type;location;lat;lon;timestamp;temperature;humidity
6293;DHT22;3179;54.350;10.102;2024-03-02T00:00:50;10.80;99.90
6293;DHT22;3179;54.350;10.102;2024-03-02T00:03:17;10.80;99.90
6293;DHT22;3179;54.350;10.102;2024-03-02T00:05:49;10.80;99.90
6293;DHT22;3179;54.350;10.102;2024-03-02T00:08:22;10.80;99.90
6293;DHT22;3179;54.350;10.102;2024-03-02T00:10:53;10.80;99.90
6293;DHT22;3179;54.350;10.102;2024-03-02T00:13:23;10.80;99.90
6293;DHT22;3179;54.350;10.102;2024-03-02T00:15:52;10.90;99.90
6293;DHT22;3179;54.350;10.102;2024-03-02T00:18:23;10.90;99.90
6293;DHT22;3179;54.350;10.102;2024-03-02T00:20:54;10.90;99.90
6293;DHT22;3179;54.350;10.102;2024-03-02T00:23:23;10.90;99.90
6293;DHT22;3179;54.350;10.102;2024-03-02T00:25:51;10.90;99.90
6293;DHT22;3179;54.350;10.102;2024-03-02T00:28:20;10.90;99.90
6293;DHT22;3179;54.350;10.102;2024-03-02T00:31:02;10.90;99.90
6293;DHT22;3179;54.350;10.102;2024-03-02T00:33:32;10.90;99.90
6293;DHT22;3179;54.350;10.102;2024-03-02T00:36:01;10.80;99.90
6293;DHT22;3179;54.350;10.102;2024-03-02T00:38:27;10.80;99.90
6293;DHT22;3179;54.350;10.102;2024-03-02T00:40:54;10.80;99.90
6293;DHT22;3179;54.350;10.102;2024-03-02T00:43:42;10.80;99.90
6293;DHT22;3179;54.350;10.102;2024-03-02T00:46:11;10.90;99.90
6293;DHT22;3179;54.350;10.102;2024-03-02T00:48:39;10.90;99.90
6293;DHT22;3179;54.350;10.102;2024-03-02T00:51:08;10.80;99.90
6293;DHT22;3179;54.350;10.102;2024-03-02T00:53:35;10.80;99.90
6293;DHT22;3179;54.350;10.102;2024-03-02T00:56:02;10.80;99.90
6293;DHT22;3179;54.350;10.102;2024-03-02T00:58:29;10.80;99.90
6293;DHT22;3179;54.350;10.102;2024-03-02T01:00:56;10.80;99.90
6293;DHT22;3179;54.350;10.102;2024-03-02T01:03:22;10.80;99.90
6293;DHT22;3179;54.350;10.102;2024-03-02T01:05:49;10.80;99.90
6293;DHT22;3179;54.350;10.102;2024-03-02T01:08:18;10.70;99.90
6293;DHT22;3179;54.350;10.102;2024-03-02T01:10:44;10.70;99.90
6293;DHT22;3179;54.350;10.102;2024-03-02T01:13:11;10.70;99.90
6293;DHT22;3179;54.350;10.102;2024-03-02T01:15:38;10.70;99.90
6293;DHT22;3179;54.350;10.102;2024-03-02T01:18:05;10.70;99.90
6293;DHT22;3179;54.350;10.102;2024-03-02T01:20:32;10.70;99.90
6293;DHT22;3179;54.350;10.102;2024-03-02T01:22:59;10.70;99.90
6293;DHT22;3179;54.350;10.102;2024-03-02T01:25:27;10.70;99.90
6293;DHT22;3179;54.350;10.102;2024-03-02T01:27:54;10.70;99.90
6293;DHT22;3179;54.350;10.102;2024-03-02T01:30:21;10.70;99.90
6293;DHT22;3179;54.350;10.102;2024-03-02T01:32:48;10.70;99.90
6293;DHT22;3179;54.350;10.102;2024-03-02T01:35:14;10.60;99.90
6293;DHT22;3179;54.350;10.102;2024-03-02T01:37:42;10.70;99.90
6293;DHT22;3179;54.350;10.102;2024-03-02T01:40:10;10.60;99.90
6293;DHT22;3179;54.350;10.102;2024-03-02T01:42:39;10.60;99.90
6293;DHT22;3179;54.350;10.102;2024-03-02T01:45:07;10.60;99.90
6293;DHT22;3179;54.350;10.102;2024-03-02T01:47:34;10.60;99.90
6293;DHT22;3179;54.350;10.102;2024-03-02T01:50:01;10.60;99.90
6293;DHT22;3179;54.350;10.102;2024-03-02T01:52:28;10.60;99.90
6293;DHT22;3179;54.350;10.102;2024-03-02T01:54:55;10.60;99.90
6293;DHT22;3179;54.350;10.102;2024-03-02T01:57:22;10.60;99.90
6293;DHT22;3179;54.350;10.102;2024-03-02T01:59:51;10.60;99.90
6293;DHT22;3179;54.350;10.102;2024-03-02T02:02:18;10.60;99.90
6293;DHT22;3179;54.350;10.102;2024-03-02T02:04:46;10.60;99.90
6293;DHT22;3179;54.350;10.102;2024-03-02T02:07:13;10.60;99.90
6293;DHT22;3179;54.350;10.102;2024-03-02T02:09:40;10.60;99.90
6293;DHT22;3179;54.350;10.102;2024-03-02T02:12:08;10.60;99.90
6293;DHT22;3179;54.350;10.102;2024-03-02T02:14:35;10.50;99.90
6293;DHT22;3179;54.350;10.102;2024-03-02T02:17:04;10.50;99.90
6293;DHT22;3179;54.350;10.102;2024-03-02T02:19:31;10.50;99.90
6293;DHT22;3179;54.350;10.102;2024-03-02T02:21:59;10.50;99.90
6293;DHT22;3179;54.350;10.102;2024-03-02T02:24:26;10.50;99.90
6293;DHT22;3179;54.350;10.102;2024-03-02T02:26:53;10.50;99.90
6293;DHT22;3179;54.350;10.102;2024-03-02T02:29:19;10.50;99.90
6293;DHT22;3179;54.350;10.102;2024-03-02T02:31:46;10.50;99.90
6293;DHT22;3179;54.350;10.102;2024-03-02T02:34:14;10.50;99.90
6293;DHT22;3179;54.350;10.102;2024-03-02T02:36:41;10.50;99.90
6293;DHT22;3179;54.350;10.102;2024-03-02T02:39:12;10.50;99.90
6293;DHT22;3179;54.350;10.102;2024-03-02T02:41:40;10.50;99.90
6293;DHT22;3179;54.350;10.102;2024-03-02T02:44:07;10.50;99.90
6293;DHT22;3179;54.350;10.102;2024-03-02T02:46:34;10.40;99.90
6293;DHT22;3179;54.350;10.102;2024-03-02T02:49:01;10.50;99.90
6293;DHT22;3179;54.350;10.102;2024-03-02T02:51:27;10.40;99.90
6293;DHT22;3179;54.350;10.102;2024-03-02T02:53:54;10.50;99.90
6293;DHT22;3179;54.350;10.102;2024-03-02T02:56:23;10.40;99.90
6293;DHT22;3179;54.350;10.102;2024-03-02T02:58:50;10.40;99.90
6293;DHT22;3179;54.350;10.102;2024-03-02T03:01:16;10.40;99.90
6293;DHT22;3179;54.350;10.102;2024-03-02T03:03:43;10.40;99.90
6293;DHT22;3179;54.350;10.102;2024-03-02T03:06:11;10.40;99.90
6293;DHT22;3179;54.350;10.102;2024-03-02T03:08:38;10.40;99.90
6293;DHT22;3179;54.350;10.102;2024-03-02T03:11:05;10.40;99.90
6293;DHT22;3179;54.350;10.102;2024-03-02T03:13:34;10.30;99.90
6293;DHT22;3179;54.350;10.102;2024-03-02T03:16:01;10.40;99.90
6293;DHT22;3179;54.350;10.102;2024-03-02T03:18:28;10.40;99.90
6293;DHT22;3179;54.350;10.102;2024-03-02T03:20:55;10.30;99.90
6293;DHT22;3179;54.350;10.102;2024-03-02T03:23:22;10.30;99.90
6293;DHT22;3179;54.350;10.102;2024-03-02T03:25:49;10.30;99.90
6293;DHT22;3179;54.350;10.102;2024-03-02T03:28:15;10.30;99.90
6293;DHT22;3179;54.350;10.102;2024-03-02T03:30:44;10.30;99.90
6293;DHT22;3179;54.350;10.102;2024-03-02T03:33:10;10.30;99.90
6293;DHT22;3179;54.350;10.102;2024-03-02T03:35:37;10.30;99.90
6293;DHT22;3179;54.350;10.102;2024-03-02T03:38:04;10.30;99.90
6293;DHT22;3179;54.350;10.102;2024-03-02T03:40:31;10.30;99.90
6293;DHT22;3179;54.350;10.102;2024-03-02T03:42:58;10.20;99.90
6293;DHT22;3179;54.350;10.102;2024-03-02T03:45:25;10.20;99.90
6293;DHT22;3179;54.350;10.102;2024-03-02T03:47:54;10.30;99.90
6293;DHT22;3179;54.350;10.102;2024-03-02T03:50:21;10.30;99.90
6293;DHT22;3179;54.350;10.102;2024-03-02T03:52:48;10.30;99.90
6293;DHT22;3179;54.350;10.102;2024-03-02T03:55:15;10.30;99.90
6293;DHT22;3179;54.350;10.102;2024-03-02T03:57:41;10.30;99.90
6293;DHT22;3179;54.350;10.102;2024-03-02T04:00:09;10.30;99.90
6293;DHT22;3179;54.350;10.102;2024-03-02T04:02:37;10.30;99.90
6293;DHT22;3179;54.350;10.102;2024-03-02T04:05:06;10.30;99.90
6293;DHT22;3179;54.350;10.102;2024-03-02T04:07:35;10.30;99.90
6293;DHT22;3179;54.350;10.102;2024-03-02T04:10:07;10.30;99.90
6293;DHT22;3179;54.350;10.102;2024-03-02T04:12:35;10.30;99.90
6293;DHT22;3179;54.350;10.102;2024-03-02T04:15:03;10.30;99.90
6293;DHT22;3179;54.350;10.102;2024-03-02T04:17:31;10.20;99.90
6293;DHT22;3179;54.350;10.102;2024-03-02T04:19:59;10.30;99.90
6293;DHT22;3179;54.350;10.102;2024-03-02T04:22:27;10.20;99.90
6293;DHT22;3179;54.350;10.102;2024-03-02T04:24:54;10.20;99.90
6293;DHT22;3179;54.350;10.102;2024-03-02T04:27:21;10.20;99.90
6293;DHT22;3179;54.350;10.102;2024-03-02T04:29:48;10.20;99.90
6293;DHT22;3179;54.350;10.102;2024-03-02T04:32:15;10.20;99.90
6293;DHT22;3179;54.350;10.102;2024-03-02T04:34:42;10.20;99.90
6293;DHT22;3179;54.350;10.102;2024-03-02T04:37:10;10.30;99.90
6293;DHT22;3179;54.350;10.102;2024-03-02T04:39:41;10.20;99.90
6293;DHT22;3179;54.350;10.102;2024-03-02T04:42:08;10.20;99.90
6293;DHT22;3179;54.350;10.102;2024-03-02T04:44:34;10.20;99.90
6293;DHT22;3179;54.350;10.102;2024-03-02T04:47:02;10.20;99.90
6293;DHT22;3179;54.350;10.102;2024-03-02T04:49:29;10.20;99.90
6293;DHT22;3179;54.350;10.102;2024-03-02T04:51:56;10.20;99.90
6293;DHT22;3179;54.350;10.102;2024-03-02T04:54:23;10.20;99.90
6293;DHT22;3179;54.350;10.102;2024-03-02T04:56:51;10.20;99.90
6293;DHT22;3179;54.350;10.102;2024-03-02T04:59:18;10.20;99.90
6293;DHT22;3179;54.350;10.102;2024-03-02T05:01:46;10.20;99.90
6293;DHT22;3179;54.350;10.102;2024-03-02T05:04:13;10.20;99.90
6293;DHT22;3179;54.350;10.102;2024-03-02T05:06:40;10.20;99.90
6293;DHT22;3179;54.350;10.102;2024-03-02T05:09:07;10.20;99.90
6293;DHT22;3179;54.350;10.102;2024-03-02T05:11:34;10.10;99.90
6293;DHT22;3179;54.350;10.102;2024-03-02T05:14:20;10.10;99.90
6293;DHT22;3179;54.350;10.102;2024-03-02T05:16:47;10.10;99.90
6293;DHT22;3179;54.350;10.102;2024-03-02T05:19:14;10.00;99.90
6293;DHT22;3179;54.350;10.102;2024-03-02T05:21:40;10.00;99.90
6293;DHT22;3179;54.350;10.102;2024-03-02T05:24:07;10.00;99.90
6293;DHT22;3179;54.350;10.102;2024-03-02T05:26:34;10.10;99.90
6293;DHT22;3179;54.350;10.102;2024-03-02T05:29:01;10.10;99.90
6293;DHT22;3179;54.350;10.102;2024-03-02T05:31:29;10.00;99.90
6293;DHT22;3179;54.350;10.102;2024-03-02T05:33:56;10.00;99.90
6293;DHT22;3179;54.350;10.102;2024-03-02T05:36:23;9.90;99.90
6293;DHT22;3179;54.350;10.102;2024-03-02T05:38:50;9.90;99.90
6293;DHT22;3179;54.350;10.102;2024-03-02T05:41:17;9.90;99.90
6293;DHT22;3179;54.350;10.102;2024-03-02T05:43:44;10.00;99.90
6293;DHT22;3179;54.350;10.102;2024-03-02T05:46:11;9.90;99.90
6293;DHT22;3179;54.350;10.102;2024-03-02T05:48:39;9.90;99.90
6293;DHT22;3179;54.350;10.102;2024-03-02T05:51:06;9.90;99.90
6293;DHT22;3179;54.350;10.102;2024-03-02T05:53:32;9.90;99.90
6293;DHT22;3179;54.350;10.102;2024-03-02T05:55:59;10.00;99.90
6293;DHT22;3179;54.350;10.102;2024-03-02T05:58:26;10.00;99.90
6293;DHT22;3179;54.350;10.102;2024-03-02T06:01:03;10.00;99.90
6293;DHT22;3179;54.350;10.102;2024-03-02T06:03:31;10.00;99.90
6293;DHT22;3179;54.350;10.102;2024-03-02T06:05:59;9.90;99.90
6293;DHT22;3179;54.350;10.102;2024-03-02T06:08:26;9.90;99.90
6293;DHT22;3179;54.350;10.102;2024-03-02T06:10:53;9.90;99.90
6293;DHT22;3179;54.350;10.102;2024-03-02T06:13:21;10.00;99.90
6293;DHT22;3179;54.350;10.102;2024-03-02T06:15:48;9.90;99.90
6293;DHT22;3179;54.350;10.102;2024-03-02T06:18:15;9.90;99.90
6293;DHT22;3179;54.350;10.102;2024-03-02T06:20:42;9.90;99.90
6293;DHT22;3179;54.350;10.102;2024-03-02T06:23:10;9.90;99.90
6293;DHT22;3179;54.350;10.102;2024-03-02T06:25:37;9.90;99.90
6293;DHT22;3179;54.350;10.102;2024-03-02T06:28:04;9.90;99.90
6293;DHT22;3179;54.350;10.102;2024-03-02T06:30:31;9.90;99.90
6293;DHT22;3179;54.350;10.102;2024-03-02T06:32:58;10.00;99.90
6293;DHT22;3179;54.350;10.102;2024-03-02T06:35:25;9.90;99.90
6293;DHT22;3179;54.350;10.102;2024-03-02T06:37:52;9.90;99.90
6293;DHT22;3179;54.350;10.102;2024-03-02T06:40:20;9.90;99.90
6293;DHT22;3179;54.350;10.102;2024-03-02T06:42:47;10.00;99.90
6293;DHT22;3179;54.350;10.102;2024-03-02T06:45:14;10.00;99.90
6293;DHT22;3179;54.350;10.102;2024-03-02T06:47:41;10.00;99.90
6293;DHT22;3179;54.350;10.102;2024-03-02T06:50:09;10.00;99.90
6293;DHT22;3179;54.350;10.102;2024-03-02T06:52:38;10.00;99.90
6293;DHT22;3179;54.350;10.102;2024-03-02T06:55:05;10.00;99.90
6293;DHT22;3179;54.350;10.102;2024-03-02T06:57:34;10.00;99.90
6293;DHT22;3179;54.350;10.102;2024-03-02T07:00:01;10.10;99.90
6293;DHT22;3179;54.350;10.102;2024-03-02T07:02:30;10.10;99.90
6293;DHT22;3179;54.350;10.102;2024-03-02T07:04:58;10.10;99.90
6293;DHT22;3179;54.350;10.102;2024-03-02T07:07:24;10.10;99.90
6293;DHT22;3179;54.350;10.102;2024-03-02T07:09:51;10.10;99.90
6293;DHT22;3179;54.350;10.102;2024-03-02T07:12:18;10.20;99.90
6293;DHT22;3179;54.350;10.102;2024-03-02T07:14:46;10.10;99.90
6293;DHT22;3179;54.350;10.102;2024-03-02T07:17:37;10.20;99.90
6293;DHT22;3179;54.350;10.102;2024-03-02T07:20:04;10.20;99.90
6293;DHT22;3179;54.350;10.102;2024-03-02T07:22:32;10.20;99.90
6293;DHT22;3179;54.350;10.102;2024-03-02T07:24:59;10.20;99.90
6293;DHT22;3179;54.350;10.102;2024-03-02T07:27:26;10.20;99.90
6293;DHT22;3179;54.350;10.102;2024-03-02T07:29:54;10.30;99.90
6293;DHT22;3179;54.350;10.102;2024-03-02T07:32:21;10.30;99.90
6293;DHT22;3179;54.350;10.102;2024-03-02T07:34:48;10.30;99.90
6293;DHT22;3179;54.350;10.102;2024-03-02T07:37:16;10.30;99.90
6293;DHT22;3179;54.350;10.102;2024-03-02T07:39:44;10.30;99.90
6293;DHT22;3179;54.350;10.102;2024-03-02T07:42:11;10.30;99.90
6293;DHT22;3179;54.350;10.102;2024-03-02T07:44:38;10.40;99.90
6293;DHT22;3179;54.350;10.102;2024-03-02T07:47:07;10.40;99.90
6293;DHT22;3179;54.350;10.102;2024-03-02T07:49:34;10.40;99.90
6293;DHT22;3179;54.350;10.102;2024-03-02T07:52:01;10.40;99.90
6293;DHT22;3179;54.350;10.102;2024-03-02T07:54:28;10.40;99.90
6293;DHT22;3179;54.350;10.102;2024-03-02T07:56:55;10.40;99.90
6293;DHT22;3179;54.350;10.102;2024-03-02T07:59:22;10.40;99.90
6293;DHT22;3179;54.350;10.102;2024-03-02T08:01:49;10.40;99.90
6293;DHT22;3179;54.350;10.102;2024-03-02T08:04:18;10.40;99.90
6293;DHT22;3179;54.350;10.102;2024-03-02T08:06:45;10.50;99.90
6293;DHT22;3179;54.350;10.102;2024-03-02T08:09:12;10.50;99.90
6293;DHT22;3179;54.350;10.102;2024-03-02T08:11:39;10.50;99.90
6293;DHT22;3179;54.350;10.102;2024-03-02T08:14:06;10.50;99.90
6293;DHT22;3179;54.350;10.102;2024-03-02T08:16:33;10.60;99.90
6293;DHT22;3179;54.350;10.102;2024-03-02T08:19:00;10.60;99.90
6293;DHT22;3179;54.350;10.102;2024-03-02T08:21:28;10.70;99.90
6293;DHT22;3179;54.350;10.102;2024-03-02T08:23:56;10.70;99.90
6293;DHT22;3179;54.350;10.102;2024-03-02T08:26:24;10.70;99.90
6293;DHT22;3179;54.350;10.102;2024-03-02T08:28:50;10.80;99.90
6293;DHT22;3179;54.350;10.102;2024-03-02T08:31:17;10.80;99.90
6293;DHT22;3179;54.350;10.102;2024-03-02T08:33:43;10.80;99.90
6293;DHT22;3179;54.350;10.102;2024-03-02T08:36:10;10.80;99.90
6293;DHT22;3179;54.350;10.102;2024-03-02T08:38:38;10.90;99.90
6293;DHT22;3179;54.350;10.102;2024-03-02T08:41:06;10.80;99.90
6293;DHT22;3179;54.350;10.102;2024-03-02T08:43:34;10.90;99.90
6293;DHT22;3179;54.350;10.102;2024-03-02T08:46:01;10.90;99.90
6293;DHT22;3179;54.350;10.102;2024-03-02T08:48:28;10.90;99.90
6293;DHT22;3179;54.350;10.102;2024-03-02T08:50:54;10.90;99.90
6293;DHT22;3179;54.350;10.102;2024-03-02T08:53:21;10.90;99.90
6293;DHT22;3179;54.350;10.102;2024-03-02T08:55:50;10.90;99.90
6293;DHT22;3179;54.350;10.102;2024-03-02T08:58:17;10.90;99.90
6293;DHT22;3179;54.350;10.102;2024-03-02T09:00:44;11.00;99.90
6293;DHT22;3179;54.350;10.102;2024-03-02T09:03:11;11.00;99.90
6293;DHT22;3179;54.350;10.102;2024-03-02T09:05:37;11.00;99.90
6293;DHT22;3179;54.350;10.102;2024-03-02T09:08:05;11.00;99.90
6293;DHT22;3179;54.350;10.102;2024-03-02T09:10:33;11.10;99.90
6293;DHT22;3179;54.350;10.102;2024-03-02T09:13:01;11.10;99.90
6293;DHT22;3179;54.350;10.102;2024-03-02T09:15:28;11.20;99.90
6293;DHT22;3179;54.350;10.102;2024-03-02T09:17:55;11.30;99.90
6293;DHT22;3179;54.350;10.102;2024-03-02T09:20:22;11.30;99.90
6293;DHT22;3179;54.350;10.102;2024-03-02T09:22:49;11.40;99.90
6293;DHT22;3179;54.350;10.102;2024-03-02T09:25:16;11.40;99.90
6293;DHT22;3179;54.350;10.102;2024-03-02T09:27:43;11.50;99.90
6293;DHT22;3179;54.350;10.102;2024-03-02T09:30:12;11.50;99.90
6293;DHT22;3179;54.350;10.102;2024-03-02T09:32:39;11.60;99.90
6293;DHT22;3179;54.350;10.102;2024-03-02T09:35:07;11.60;99.90
6293;DHT22;3179;54.350;10.102;2024-03-02T09:37:34;11.60;99.90
6293;DHT22;3179;54.350;10.102;2024-03-02T09:40:01;11.70;99.90
6293;DHT22;3179;54.350;10.102;2024-03-02T09:42:28;11.70;99.90
6293;DHT22;3179;54.350;10.102;2024-03-02T09:44:56;11.70;99.90
6293;DHT22;3179;54.350;10.102;2024-03-02T09:47:25;11.70;99.90
6293;DHT22;3179;54.350;10.102;2024-03-02T09:49:51;11.70;99.90
6293;DHT22;3179;54.350;10.102;2024-03-02T09:52:19;11.70;99.90
6293;DHT22;3179;54.350;10.102;2024-03-02T09:54:47;11.70;99.90
6293;DHT22;3179;54.350;10.102;2024-03-02T09:57:14;11.70;99.90
6293;DHT22;3179;54.350;10.102;2024-03-02T09:59:41;11.70;99.90
6293;DHT22;3179;54.350;10.102;2024-03-02T10:02:08;11.70;99.90
6293;DHT22;3179;54.350;10.102;2024-03-02T10:04:36;11.80;99.90
6293;DHT22;3179;54.350;10.102;2024-03-02T10:07:11;11.90;99.90
6293;DHT22;3179;54.350;10.102;2024-03-02T10:09:38;11.90;99.90
6293;DHT22;3179;54.350;10.102;2024-03-02T10:12:06;11.90;99.90
6293;DHT22;3179;54.350;10.102;2024-03-02T10:14:33;11.90;99.90
6293;DHT22;3179;54.350;10.102;2024-03-02T10:17:04;12.00;99.90
6293;DHT22;3179;54.350;10.102;2024-03-02T10:19:33;12.00;99.90
6293;DHT22;3179;54.350;10.102;2024-03-02T10:22:03;12.10;99.90
6293;DHT22;3179;54.350;10.102;2024-03-02T10:24:36;12.10;99.90
6293;DHT22;3179;54.350;10.102;2024-03-02T10:27:07;12.20;99.90
6293;DHT22;3179;54.350;10.102;2024-03-02T10:29:37;12.20;99.90
6293;DHT22;3179;54.350;10.102;2024-03-02T10:32:05;12.20;99.90
6293;DHT22;3179;54.350;10.102;2024-03-02T10:34:33;12.30;99.90
6293;DHT22;3179;54.350;10.102;2024-03-02T10:37:01;12.30;99.90
6293;DHT22;3179;54.350;10.102;2024-03-02T10:39:28;12.40;99.90
6293;DHT22;3179;54.350;10.102;2024-03-02T10:41:57;12.40;99.90
6293;DHT22;3179;54.350;10.102;2024-03-02T10:44:25;12.40;99.90
6293;DHT22;3179;54.350;10.102;2024-03-02T10:46:54;12.50;99.90
6293;DHT22;3179;54.350;10.102;2024-03-02T10:49:23;12.60;99.90
6293;DHT22;3179;54.350;10.102;2024-03-02T10:51:50;12.60;99.90
6293;DHT22;3179;54.350;10.102;2024-03-02T10:54:18;12.70;99.90
6293;DHT22;3179;54.350;10.102;2024-03-02T10:56:51;12.70;99.90
6293;DHT22;3179;54.350;10.102;2024-03-02T10:59:25;12.80;99.90
6293;DHT22;3179;54.350;10.102;2024-03-02T11:01:56;12.80;99.90
6293;DHT22;3179;54.350;10.102;2024-03-02T11:04:25;12.90;99.90
6293;DHT22;3179;54.350;10.102;2024-03-02T11:06:56;12.90;99.90
6293;DHT22;3179;54.350;10.102;2024-03-02T11:09:28;12.90;99.90
6293;DHT22;3179;54.350;10.102;2024-03-02T11:12:00;13.00;99.90
6293;DHT22;3179;54.350;10.102;2024-03-02T11:14:30;13.00;99.90
6293;DHT22;3179;54.350;10.102;2024-03-02T11:16:58;13.00;99.90
6293;DHT22;3179;54.350;10.102;2024-03-02T11:19:27;13.00;99.90
6293;DHT22;3179;54.350;10.102;2024-03-02T11:21:54;13.10;99.90
6293;DHT22;3179;54.350;10.102;2024-03-02T11:24:33;13.10;99.90
6293;DHT22;3179;54.350;10.102;2024-03-02T11:26:59;13.20;99.90
6293;DHT22;3179;54.350;10.102;2024-03-02T11:29:45;13.20;99.90
6293;DHT22;3179;54.350;10.102;2024-03-02T11:32:21;13.20;99.90
6293;DHT22;3179;54.350;10.102;2024-03-02T11:34:49;13.20;99.90
6293;DHT22;3179;54.350;10.102;2024-03-02T11:37:17;13.20;99.90
6293;DHT22;3179;54.350;10.102;2024-03-02T11:39:49;13.20;99.90
6293;DHT22;3179;54.350;10.102;2024-03-02T11:42:17;13.30;99.90
6293;DHT22;3179;54.350;10.102;2024-03-02T11:44:46;13.40;99.90
6293;DHT22;3179;54.350;10.102;2024-03-02T11:47:15;13.40;99.90
6293;DHT22;3179;54.350;10.102;2024-03-02T11:49:43;13.50;99.90
6293;DHT22;3179;54.350;10.102;2024-03-02T11:52:11;13.60;99.90
6293;DHT22;3179;54.350;10.102;2024-03-02T11:54:40;13.60;99.90
6293;DHT22;3179;54.350;10.102;2024-03-02T11:57:14;13.70;99.90
6293;DHT22;3179;54.350;10.102;2024-03-02T11:59:41;13.70;99.90
6293;DHT22;3179;54.350;10.102;2024-03-02T12:02:14;13.80;99.90
6293;DHT22;3179;54.350;10.102;2024-03-02T12:04:42;13.90;99.90
6293;DHT22;3179;54.350;10.102;2024-03-02T12:07:10;13.90;99.90
6293;DHT22;3179;54.350;10.102;2024-03-02T12:09:38;13.90;99.90
6293;DHT22;3179;54.350;10.102;2024-03-02T12:12:06;13.90;99.90
6293;DHT22;3179;54.350;10.102;2024-03-02T12:14:36;13.90;99.90
6293;DHT22;3179;54.350;10.102;2024-03-02T12:17:04;14.00;99.90
6293;DHT22;3179;54.350;10.102;2024-03-02T12:19:31;14.00;99.90
6293;DHT22;3179;54.350;10.102;2024-03-02T12:21:59;14.00;99.90
6293;DHT22;3179;54.350;10.102;2024-03-02T12:24:27;13.90;99.90
6293;DHT22;3179;54.350;10.102;2024-03-02T12:26:55;13.90;99.90
6293;DHT22;3179;54.350;10.102;2024-03-02T12:29:22;13.90;99.90
6293;DHT22;3179;54.350;10.102;2024-03-02T12:31:52;13.90;99.90
6293;DHT22;3179;54.350;10.102;2024-03-02T12:34:19;13.80;99.90
6293;DHT22;3179;54.350;10.102;2024-03-02T12:36:46;13.80;99.90
6293;DHT22;3179;54.350;10.102;2024-03-02T12:39:18;13.80;99.90
6293;DHT22;3179;54.350;10.102;2024-03-02T12:41:46;13.80;99.90
6293;DHT22;3179;54.350;10.102;2024-03-02T12:44:16;13.80;99.90
6293;DHT22;3179;54.350;10.102;2024-03-02T12:46:43;13.80;99.90
6293;DHT22;3179;54.350;10.102;2024-03-02T12:49:12;13.80;99.90
6293;DHT22;3179;54.350;10.102;2024-03-02T12:51:40;13.80;99.90
6293;DHT22;3179;54.350;10.102;2024-03-02T12:54:08;13.70;99.90
6293;DHT22;3179;54.350;10.102;2024-03-02T12:56:35;13.70;99.90
6293;DHT22;3179;54.350;10.102;2024-03-02T12:59:03;13.60;99.90
6293;DHT22;3179;54.350;10.102;2024-03-02T13:01:30;13.60;99.90
6293;DHT22;3179;54.350;10.102;2024-03-02T13:03:58;13.60;99.90
6293;DHT22;3179;54.350;10.102;2024-03-02T13:06:26;13.60;99.90
6293;DHT22;3179;54.350;10.102;2024-03-02T13:08:54;13.60;99.90
6293;DHT22;3179;54.350;10.102;2024-03-02T13:11:22;13.60;99.90
6293;DHT22;3179;54.350;10.102;2024-03-02T13:13:50;13.60;99.90
6293;DHT22;3179;54.350;10.102;2024-03-02T13:16:18;13.60;99.90
6293;DHT22;3179;54.350;10.102;2024-03-02T13:18:46;13.60;99.90
6293;DHT22;3179;54.350;10.102;2024-03-02T13:21:13;13.60;99.90
6293;DHT22;3179;54.350;10.102;2024-03-02T13:23:41;13.60;99.90
6293;DHT22;3179;54.350;10.102;2024-03-02T13:26:08;13.60;99.90
6293;DHT22;3179;54.350;10.102;2024-03-02T13:28:36;13.50;99.90
6293;DHT22;3179;54.350;10.102;2024-03-02T13:31:04;13.60;99.90
6293;DHT22;3179;54.350;10.102;2024-03-02T13:33:32;13.50;99.90
6293;DHT22;3179;54.350;10.102;2024-03-02T13:35:59;13.60;99.90
6293;DHT22;3179;54.350;10.102;2024-03-02T13:38:27;13.60;99.90
6293;DHT22;3179;54.350;10.102;2024-03-02T13:40:55;13.50;99.90
6293;DHT22;3179;54.350;10.102;2024-03-02T13:43:22;13.60;99.90
6293;DHT22;3179;54.350;10.102;2024-03-02T13:45:50;13.50;99.90
6293;DHT22;3179;54.350;10.102;2024-03-02T13:48:17;13.60;99.90
6293;DHT22;3179;54.350;10.102;2024-03-02T13:50:45;13.50;99.90
6293;DHT22;3179;54.350;10.102;2024-03-02T13:53:12;13.50;99.90
6293;DHT22;3179;54.350;10.102;2024-03-02T13:55:39;13.50;99.90
6293;DHT22;3179;54.350;10.102;2024-03-02T13:58:08;13.60;99.90
6293;DHT22;3179;54.350;10.102;2024-03-02T14:00:36;13.50;99.90
6293;DHT22;3179;54.350;10.102;2024-03-02T14:03:04;13.50;99.90
6293;DHT22;3179;54.350;10.102;2024-03-02T14:05:32;13.50;99.90
6293;DHT22;3179;54.350;10.102;2024-03-02T14:07:59;13.50;99.90
6293;DHT22;3179;54.350;10.102;2024-03-02T14:10:26;13.50;99.90
6293;DHT22;3179;54.350;10.102;2024-03-02T14:12:54;13.50;99.90
6293;DHT22;3179;54.350;10.102;2024-03-02T14:15:23;13.50;99.90
6293;DHT22;3179;54.350;10.102;2024-03-02T14:17:50;13.50;99.90
6293;DHT22;3179;54.350;10.102;2024-03-02T14:20:17;13.50;99.90
6293;DHT22;3179;54.350;10.102;2024-03-02T14:22:48;13.60;99.90
6293;DHT22;3179;54.350;10.102;2024-03-02T14:25:15;13.60;99.90
6293;DHT22;3179;54.350;10.102;2024-03-02T14:27:42;13.60;99.90
6293;DHT22;3179;54.350;10.102;2024-03-02T14:30:09;13.60;99.90
6293;DHT22;3179;54.350;10.102;2024-03-02T14:32:38;13.60;99.90
6293;DHT22;3179;54.350;10.102;2024-03-02T14:35:05;13.60;99.90
6293;DHT22;3179;54.350;10.102;2024-03-02T14:37:35;13.70;99.90
6293;DHT22;3179;54.350;10.102;2024-03-02T14:40:02;13.70;99.90
6293;DHT22;3179;54.350;10.102;2024-03-02T14:42:32;13.70;99.90
6293;DHT22;3179;54.350;10.102;2024-03-02T14:44:58;13.70;99.90
6293;DHT22;3179;54.350;10.102;2024-03-02T14:47:26;13.70;99.90
6293;DHT22;3179;54.350;10.102;2024-03-02T14:49:54;13.80;99.90
6293;DHT22;3179;54.350;10.102;2024-03-02T14:52:21;13.80;99.90
6293;DHT22;3179;54.350;10.102;2024-03-02T14:54:48;13.80;99.90
6293;DHT22;3179;54.350;10.102;2024-03-02T14:57:14;13.90;99.90
6293;DHT22;3179;54.350;10.102;2024-03-02T14:59:41;14.00;99.90
6293;DHT22;3179;54.350;10.102;2024-03-02T15:02:09;14.10;99.90
6293;DHT22;3179;54.350;10.102;2024-03-02T15:04:36;14.20;99.90
6293;DHT22;3179;54.350;10.102;2024-03-02T15:07:04;14.30;99.90
6293;DHT22;3179;54.350;10.102;2024-03-02T15:09:31;14.40;99.90
6293;DHT22;3179;54.350;10.102;2024-03-02T15:12:00;14.30;99.90
6293;DHT22;3179;54.350;10.102;2024-03-02T15:14:27;14.30;99.90
6293;DHT22;3179;54.350;10.102;2024-03-02T15:16:54;14.30;99.90
6293;DHT22;3179;54.350;10.102;2024-03-02T15:19:21;14.20;99.90
6293;DHT22;3179;54.350;10.102;2024-03-02T15:21:48;14.20;99.90
6293;DHT22;3179;54.350;10.102;2024-03-02T15:24:16;14.10;99.90
6293;DHT22;3179;54.350;10.102;2024-03-02T15:26:43;14.10;99.90
6293;DHT22;3179;54.350;10.102;2024-03-02T15:29:10;14.10;99.90
6293;DHT22;3179;54.350;10.102;2024-03-02T15:31:37;14.10;99.90
6293;DHT22;3179;54.350;10.102;2024-03-02T15:34:04;14.10;99.90
6293;DHT22;3179;54.350;10.102;2024-03-02T15:36:33;14.10;99.90
6293;DHT22;3179;54.350;10.102;2024-03-02T15:39:00;14.10;99.90
6293;DHT22;3179;54.350;10.102;2024-03-02T15:41:29;14.00;99.90
6293;DHT22;3179;54.350;10.102;2024-03-02T15:43:56;14.10;99.90
6293;DHT22;3179;54.350;10.102;2024-03-02T15:46:23;14.10;99.90
6293;DHT22;3179;54.350;10.102;2024-03-02T15:48:50;14.10;99.90
6293;DHT22;3179;54.350;10.102;2024-03-02T15:51:17;14.10;99.90